Aeroporto :
LOGIN :

Iscrizione | Disclaimer

   EN    FR    IT 

 










Sommario :    VFR   VFR Marginale   IFR   IFR Intensivo   IFR Molto Intensivo
Visibilità : 
Base nubi : 
>= 8 km
>= 3000ft
5 / 8 km
1000 / 3000 ft
1500m / 5 km
500 / 1000 ft
800 / 1500m
200 / 500 ft
< 800m
< 200 ft
Simboli :   Temporali  Nebbia  Neve Forte  Precipitazioni Forti  Vento > 20 kt
SIGMETs :   Varie  Temporali  Ghiacco  Turbolenza  Onda orograficha  Ceneri Vulcaniche






- Altitudine del aeroporto : 200 ft


EBBL - Klein Brogel AB

ULTIMO METAR :
  • 141125Z 19008KT 9999 SCT025 OVC028 16/12 Q1006 BLU BLU

METARs OBSOLETI :
  • 141055Z 21011KT 9999 SCT025 OVC028 17/12 Q1006 BLU BLU
  • 141025Z 21011KT 9999 SCT025 OVC028 16/11 Q1007 BLU BLU
  • 140955Z 21011KT 9999 SCT025 OVC028 16/11 Q1006 BLU BLU
  • 140925Z 20011KT 9999 SCT025 OVC028 16/11 Q1007 BLU BLU
  • 140855Z 20008KT 9999 SCT025 OVC028 16/11 Q1007 BLU BLU
  • 140825Z 19010KT 9999 SCT025 BKN035 16/11 Q1007 BLU BLU
  • 140755Z 20009KT 9999 SCT025 BKN035 16/11 Q1007 BLU BLU
  • 140725Z 19009KT 9999 FEW025 OVC035 15/10 Q1007 BLU BLU
  • 140655Z 19009KT 9999 OVC035 15/10 Q1007 BLU BLU

TAF TAF EBBL
Valido dal 14 a 10 ore il 14 a 19 ore UTC


140841Z 1410/1419 21012KT 9999 SCT025 BKN030
TEMPO 1415/1419 21012G22KT 5000 -SHRA SCT025TCU BKN030
TEMPO 1418/1419 21012G27KT 4000 SHRA BKN020TCU BKN025



MetMap, La meteo Aeronautica in un colpo d'occhio ! - Copyright ORBIFLY Dicembre 2007 - Disclaimer

ORBIFLY MET'MAP TEAM :

Programmazione e sviluppo : Alexandra Zaïnal
Concezione : Baudouin d'Aumeries
Supporto tecnico e logistico : Manuel Goepfert
Aiuto : Marc-Olivier Méhu
Aiuto per la traduzione : Arnaldo La Scala




FONTI E CREDITI :

   NOAA